X  Chiuso Dati meteorologici dell'aviazione (METAR)     EDDM Munich Airport
Temperatura
66°F Temperatura
50°F Punto di rugiada
56% Umidità



Vento
8 MPH
13 KM/O
4 M/S
7 KTS



260°
O
Condizioni attuali

Parzialmente nuvoloso Parzialmente nuvoloso
Pressione 1011.85 (hPa) - 29.88 (inHg)
Visibilità 6 (miglio) - 9.7 (km)
Aeroporto
Codice-Aeroporto EDDM

Posizione: Munich Airport
Distanza: 73 (mi)

Metar:
EDDM 191150Z AUTO 26007KT 220V310 9999 FEW039 19/10 Q1012 NOSIG

Ore: 19-05-2024 11:50 CEST